createdAt,value
2019-06-26T00:00:25.530Z,1015.49
2019-06-26T00:01:25.538Z,1015.50
2019-06-26T00:02:25.557Z,1015.48
2019-06-26T00:03:25.549Z,1015.48
2019-06-26T00:04:25.556Z,1015.50
2019-06-26T00:05:25.587Z,1015.54
2019-06-26T00:06:25.568Z,1015.55
2019-06-26T00:07:25.578Z,1015.53
2019-06-26T00:08:25.607Z,1015.58
2019-06-26T00:09:25.607Z,1015.55
2019-06-26T00:10:25.599Z,1015.54
2019-06-26T00:11:25.611Z,1015.53
2019-06-26T00:12:25.602Z,1015.54
2019-06-26T00:13:27.007Z,1015.54
2019-06-26T00:14:25.629Z,1015.55
2019-06-26T00:15:25.655Z,1015.54
2019-06-26T00:16:25.657Z,1015.57
2019-06-26T00:17:25.638Z,1015.58
2019-06-26T00:18:25.660Z,1015.60
2019-06-26T00:19:25.663Z,1015.62
2019-06-26T00:20:25.681Z,1015.63
2019-06-26T00:21:25.693Z,1015.67
2019-06-26T00:22:25.672Z,1015.67
2019-06-26T00:23:25.673Z,1015.69
2019-06-26T00:24:25.680Z,1015.72
2019-06-26T00:25:25.688Z,1015.74
2019-06-26T00:26:25.689Z,1015.74
2019-06-26T00:27:25.700Z,1015.79
2019-06-26T00:28:25.713Z,1015.77
2019-06-26T00:29:25.736Z,1015.80
2019-06-26T00:30:25.719Z,1015.83
2019-06-26T00:31:25.735Z,1015.84
2019-06-26T00:32:25.735Z,1015.85
2019-06-26T00:33:25.758Z,1015.86
2019-06-26T00:34:25.746Z,1015.86
2019-06-26T00:35:25.759Z,1015.89
2019-06-26T00:36:25.761Z,1015.84
2019-06-26T00:37:25.769Z,1015.87
2019-06-26T00:38:25.778Z,1015.90
2019-06-26T00:39:26.002Z,1015.87
2019-06-26T00:40:25.784Z,1015.89
2019-06-26T00:41:25.807Z,1015.88
2019-06-26T00:42:25.825Z,1015.88
2019-06-26T00:43:38.506Z,1015.89
2019-06-26T00:44:25.827Z,1015.90
2019-06-26T00:45:25.851Z,1015.88
2019-06-26T00:46:25.831Z,1015.90
2019-06-26T00:47:25.853Z,1015.92
2019-06-26T00:48:25.842Z,1015.92
2019-06-26T00:49:25.838Z,1015.92
2019-06-26T00:50:25.861Z,1015.87
2019-06-26T00:51:25.881Z,1015.89
2019-06-26T00:52:25.871Z,1015.90
2019-06-26T00:53:25.872Z,1015.92
2019-06-26T00:54:26.071Z,1015.91
2019-06-26T00:55:25.911Z,1015.93
2019-06-26T00:56:25.920Z,1015.94
2019-06-26T00:57:25.890Z,1015.91
2019-06-26T00:58:25.899Z,1015.95
2019-06-26T00:59:25.915Z,1015.94
2019-06-26T01:00:26.131Z,1015.99
2019-06-26T01:01:25.929Z,1015.98
2019-06-26T01:02:25.928Z,1015.99
2019-06-26T01:03:25.967Z,1015.96
2019-06-26T01:04:25.939Z,1015.95
2019-06-26T01:05:25.962Z,1015.93
2019-06-26T01:06:25.949Z,1015.93
2019-06-26T01:07:26.158Z,1015.92
2019-06-26T01:08:25.979Z,1015.91
2019-06-26T01:09:25.989Z,1015.95
2019-06-26T01:10:26.182Z,1015.94
2019-06-26T01:11:26.012Z,1015.99
2019-06-26T01:12:26.000Z,1016.01
2019-06-26T01:13:25.994Z,1016.02
2019-06-26T01:14:26.013Z,1016.03
2019-06-26T01:15:26.014Z,1016.03
2019-06-26T01:16:26.017Z,1016.02
2019-06-26T01:17:26.044Z,1016.06
2019-06-26T01:18:26.043Z,1016.03
2019-06-26T01:19:26.082Z,1016.04
2019-06-26T01:20:26.048Z,1016.03
2019-06-26T01:21:26.047Z,1016.03
2019-06-26T01:22:26.076Z,1016.04
2019-06-26T01:23:26.065Z,1016.05
2019-06-26T01:24:26.077Z,1016.06
2019-06-26T01:25:26.288Z,1016.05
2019-06-26T01:26:26.297Z,1016.06
2019-06-26T01:27:26.103Z,1016.04
2019-06-26T01:28:26.092Z,1016.04
2019-06-26T01:29:26.099Z,1016.05
2019-06-26T01:30:26.105Z,1016.07
2019-06-26T01:31:26.117Z,1016.05
2019-06-26T01:32:26.124Z,1016.08
2019-06-26T01:33:26.328Z,1016.09
2019-06-26T01:34:26.136Z,1016.06
2019-06-26T01:35:26.148Z,1016.07
2019-06-26T01:36:26.152Z,1016.06
2019-06-26T01:37:26.172Z,1016.06
2019-06-26T01:38:26.160Z,1016.10
2019-06-26T01:39:26.163Z,1016.06
2019-06-26T01:40:26.181Z,1016.09
2019-06-26T01:41:26.190Z,1016.14
2019-06-26T01:42:26.208Z,1016.12
2019-06-26T01:43:26.195Z,1016.16
2019-06-26T01:44:26.210Z,1016.13
2019-06-26T01:45:26.217Z,1016.16
2019-06-26T01:46:26.215Z,1016.13
2019-06-26T01:47:26.232Z,1016.14
2019-06-26T01:48:26.227Z,1016.12
2019-06-26T01:49:26.243Z,1016.14
2019-06-26T01:50:26.260Z,1016.17
2019-06-26T01:51:26.355Z,1016.17
2019-06-26T01:52:26.446Z,1016.10
2019-06-26T01:53:26.266Z,1016.14
2019-06-26T01:54:26.265Z,1016.12
2019-06-26T01:55:26.271Z,1016.14
2019-06-26T01:56:26.307Z,1016.12
2019-06-26T01:57:26.276Z,1016.13
2019-06-26T01:58:26.294Z,1016.14
2019-06-26T01:59:26.297Z,1016.15
2019-06-26T02:00:26.299Z,1016.11
2019-06-26T02:01:26.333Z,1016.13
2019-06-26T02:02:26.305Z,1016.13
2019-06-26T02:03:26.313Z,1016.11
2019-06-26T02:04:26.323Z,1016.11
2019-06-26T02:05:26.335Z,1016.12
2019-06-26T02:06:26.345Z,1016.15
2019-06-26T02:07:26.558Z,1016.17
2019-06-26T02:08:26.352Z,1016.19
2019-06-26T02:09:26.347Z,1016.16
2019-06-26T02:10:26.358Z,1016.22
2019-06-26T02:11:26.562Z,1016.23
2019-06-26T02:12:26.581Z,1016.22
2019-06-26T02:13:26.381Z,1016.26
2019-06-26T02:14:31.278Z,1016.26
2019-06-26T02:15:26.398Z,1016.29
2019-06-26T02:16:26.391Z,1016.26
2019-06-26T02:17:26.399Z,1016.27
2019-06-26T02:18:26.415Z,1016.29
2019-06-26T02:19:26.608Z,1016.28
2019-06-26T02:20:26.418Z,1016.34
2019-06-26T02:21:26.435Z,1016.31
2019-06-26T02:22:26.648Z,1016.31
2019-06-26T02:23:26.512Z,1016.29
2019-06-26T02:24:26.446Z,1016.28
2019-06-26T02:25:26.465Z,1016.33
2019-06-26T02:26:26.700Z,1016.37
2019-06-26T02:27:26.475Z,1016.36
2019-06-26T02:28:26.466Z,1016.38
2019-06-26T02:29:26.482Z,1016.41
2019-06-26T02:30:26.480Z,1016.39
2019-06-26T02:31:26.496Z,1016.39
2019-06-26T02:32:26.487Z,1016.44
2019-06-26T02:33:26.504Z,1016.43
2019-06-26T02:34:26.504Z,1016.38
2019-06-26T02:35:26.502Z,1016.44
2019-06-26T02:36:26.548Z,1016.42
2019-06-26T02:37:26.526Z,1016.43
2019-06-26T02:38:26.536Z,1016.47
2019-06-26T02:39:26.549Z,1016.44
2019-06-26T02:40:26.553Z,1016.44
2019-06-26T02:41:26.552Z,1016.46
2019-06-26T02:42:26.551Z,1016.46
2019-06-26T02:43:26.583Z,1016.47
2019-06-26T02:44:26.555Z,1016.46
2019-06-26T02:45:26.571Z,1016.47
2019-06-26T02:46:26.576Z,1016.51
2019-06-26T02:47:26.587Z,1016.51
2019-06-26T02:48:26.586Z,1016.53
2019-06-26T02:49:26.593Z,1016.51
2019-06-26T02:50:26.598Z,1016.56
2019-06-26T02:51:26.621Z,1016.58
2019-06-26T02:52:26.619Z,1016.58
2019-06-26T02:53:26.610Z,1016.59
2019-06-26T02:54:26.629Z,1016.57
2019-06-26T02:55:26.632Z,1016.57
2019-06-26T02:56:26.628Z,1016.60
2019-06-26T02:57:26.828Z,1016.58
2019-06-26T02:58:26.634Z,1016.62
2019-06-26T02:59:26.649Z,1016.61
2019-06-26T03:00:26.648Z,1016.67
2019-06-26T03:01:26.653Z,1016.63
2019-06-26T03:02:26.673Z,1016.68
2019-06-26T03:03:26.661Z,1016.68
2019-06-26T03:04:26.691Z,1016.69
2019-06-26T03:05:26.678Z,1016.65
2019-06-26T03:06:26.689Z,1016.67
2019-06-26T03:07:26.713Z,1016.70
2019-06-26T03:08:26.694Z,1016.69
2019-06-26T03:09:26.709Z,1016.69
2019-06-26T03:10:26.703Z,1016.71
2019-06-26T03:11:26.720Z,1016.67
2019-06-26T03:12:26.717Z,1016.70
2019-06-26T03:13:26.722Z,1016.73
2019-06-26T03:14:26.726Z,1016.71
2019-06-26T03:15:26.733Z,1016.75
2019-06-26T03:16:26.766Z,1016.78
2019-06-26T03:17:26.741Z,1016.79
2019-06-26T03:18:26.745Z,1016.79
2019-06-26T03:19:26.755Z,1016.79
2019-06-26T03:20:26.762Z,1016.77
2019-06-26T03:21:26.772Z,1016.81
2019-06-26T03:22:26.773Z,1016.82
2019-06-26T03:23:26.786Z,1016.82
2019-06-26T03:24:26.816Z,1016.82
2019-06-26T03:25:26.806Z,1016.84
2019-06-26T03:26:27.006Z,1016.85
2019-06-26T03:27:26.812Z,1016.84
2019-06-26T03:28:26.815Z,1016.84
2019-06-26T03:29:26.814Z,1016.86
2019-06-26T03:30:26.816Z,1016.87
2019-06-26T03:31:26.850Z,1016.89
2019-06-26T03:32:26.832Z,1016.87
2019-06-26T03:33:26.827Z,1016.87
2019-06-26T03:34:26.838Z,1016.94
2019-06-26T03:35:27.045Z,1016.97
2019-06-26T03:36:26.843Z,1016.94
2019-06-26T03:37:26.880Z,1016.99
2019-06-26T03:38:27.064Z,1017.02
2019-06-26T03:39:26.875Z,1017.06
2019-06-26T03:40:26.893Z,1017.08
2019-06-26T03:41:26.876Z,1017.10
2019-06-26T03:42:26.882Z,1017.09
2019-06-26T03:43:26.879Z,1017.10
2019-06-26T03:44:26.894Z,1017.11
2019-06-26T03:45:26.903Z,1017.13
2019-06-26T03:46:26.899Z,1017.13
2019-06-26T03:47:26.901Z,1017.14
2019-06-26T03:48:27.342Z,1017.18
2019-06-26T03:49:26.932Z,1017.17
2019-06-26T03:50:26.949Z,1017.17
2019-06-26T03:51:26.934Z,1017.20
2019-06-26T03:52:26.958Z,1017.20
2019-06-26T03:53:26.933Z,1017.24
2019-06-26T03:54:26.955Z,1017.19
2019-06-26T03:55:26.950Z,1017.22
2019-06-26T03:56:26.971Z,1017.25
2019-06-26T03:57:26.978Z,1017.23
2019-06-26T03:58:26.966Z,1017.22
2019-06-26T03:59:26.983Z,1017.27
2019-06-26T04:00:27.024Z,1017.29
2019-06-26T04:01:27.007Z,1017.29
2019-06-26T04:02:27.000Z,1017.31
2019-06-26T04:03:26.983Z,1017.30
2019-06-26T04:04:27.012Z,1017.33
2019-06-26T04:05:27.019Z,1017.31
2019-06-26T04:06:27.011Z,1017.30
2019-06-26T04:07:27.021Z,1017.31
2019-06-26T04:08:27.023Z,1017.34
2019-06-26T04:09:27.015Z,1017.32
2019-06-26T04:10:27.025Z,1017.34
2019-06-26T04:11:27.030Z,1017.35
2019-06-26T04:12:27.040Z,1017.35
2019-06-26T04:13:27.036Z,1017.31
2019-06-26T04:14:27.049Z,1017.35
2019-06-26T04:15:40.845Z,1017.31
2019-06-26T04:16:27.106Z,1017.34
2019-06-26T04:17:27.082Z,1017.36
2019-06-26T04:18:27.075Z,1017.36
2019-06-26T04:19:27.072Z,1017.41
2019-06-26T04:20:27.074Z,1017.39
2019-06-26T04:21:27.125Z,1017.39
2019-06-26T04:22:27.091Z,1017.43
2019-06-26T04:23:27.110Z,1017.40
2019-06-26T04:24:27.098Z,1017.43
2019-06-26T04:25:27.102Z,1017.44
2019-06-26T04:26:27.105Z,1017.47
2019-06-26T04:27:27.135Z,1017.48
2019-06-26T04:28:27.123Z,1017.50
2019-06-26T04:29:27.121Z,1017.51
2019-06-26T04:30:27.125Z,1017.54
2019-06-26T04:31:27.149Z,1017.54
2019-06-26T04:32:27.149Z,1017.56
2019-06-26T04:33:27.160Z,1017.57
2019-06-26T04:34:27.154Z,1017.58
2019-06-26T04:35:27.152Z,1017.54
2019-06-26T04:36:27.160Z,1017.55
2019-06-26T04:37:27.177Z,1017.54
2019-06-26T04:38:27.187Z,1017.55
2019-06-26T04:39:27.180Z,1017.53
2019-06-26T04:40:27.196Z,1017.58
2019-06-26T04:41:27.188Z,1017.61
2019-06-26T04:42:27.404Z,1017.59
2019-06-26T04:43:27.199Z,1017.62
2019-06-26T04:44:27.223Z,1017.60
2019-06-26T04:45:27.203Z,1017.62
2019-06-26T04:46:27.225Z,1017.63
2019-06-26T04:47:27.222Z,1017.63
2019-06-26T04:49:27.446Z,1017.65
2019-06-26T04:50:27.239Z,1017.68
2019-06-26T04:51:27.448Z,1017.71
2019-06-26T04:52:27.448Z,1017.70
2019-06-26T04:53:27.262Z,1017.70
2019-06-26T04:54:27.276Z,1017.65
2019-06-26T04:55:27.259Z,1017.66
2019-06-26T04:56:27.271Z,1017.68
2019-06-26T04:57:27.282Z,1017.68
2019-06-26T04:58:27.280Z,1017.70
2019-06-26T04:59:27.293Z,1017.73
2019-06-26T05:00:27.290Z,1017.73
2019-06-26T05:01:27.310Z,1017.76
2019-06-26T05:02:27.300Z,1017.75
2019-06-26T05:03:27.322Z,1017.75
2019-06-26T05:04:27.326Z,1017.72
2019-06-26T05:05:38.974Z,1017.72
2019-06-26T05:06:27.317Z,1017.73
2019-06-26T05:07:27.330Z,1017.74
2019-06-26T05:08:27.346Z,1017.74
2019-06-26T05:09:27.361Z,1017.75
2019-06-26T05:10:27.356Z,1017.76
2019-06-26T05:11:27.366Z,1017.79
2019-06-26T05:12:27.354Z,1017.82
2019-06-26T05:13:27.366Z,1017.85
2019-06-26T05:14:27.381Z,1017.86
2019-06-26T05:15:27.369Z,1017.85
2019-06-26T05:16:27.583Z,1017.87
2019-06-26T05:17:27.399Z,1017.89
2019-06-26T05:18:27.396Z,1017.85
2019-06-26T05:19:27.392Z,1017.90
2019-06-26T05:20:27.400Z,1017.87
2019-06-26T05:21:27.410Z,1017.87
2019-06-26T05:22:27.446Z,1017.87
2019-06-26T05:23:27.419Z,1017.83
2019-06-26T05:24:27.418Z,1017.87
2019-06-26T05:25:27.544Z,1017.85
2019-06-26T05:26:27.431Z,1017.88
2019-06-26T05:27:27.435Z,1017.88
2019-06-26T05:28:27.453Z,1017.89
2019-06-26T05:29:27.462Z,1017.89
2019-06-26T05:30:27.462Z,1017.89
2019-06-26T05:31:27.453Z,1017.91
2019-06-26T05:32:27.473Z,1017.94
2019-06-26T05:33:27.478Z,1017.89
2019-06-26T05:34:27.484Z,1017.92
2019-06-26T05:35:27.490Z,1017.92
2019-06-26T05:36:27.491Z,1017.97
2019-06-26T05:37:27.487Z,1017.97
2019-06-26T05:38:27.495Z,1017.98
2019-06-26T05:39:27.515Z,1018.04
2019-06-26T05:40:27.537Z,1018.03
2019-06-26T05:41:27.712Z,1018.06
2019-06-26T05:42:27.523Z,1018.06
2019-06-26T05:43:27.526Z,1018.10
2019-06-26T05:44:27.537Z,1018.12
2019-06-26T05:45:27.542Z,1018.16
2019-06-26T05:46:31.446Z,1018.12
2019-06-26T05:47:27.558Z,1018.11
2019-06-26T05:48:27.556Z,1018.13
2019-06-26T05:49:27.759Z,1018.14
2019-06-26T05:50:27.572Z,1018.15
2019-06-26T05:51:27.560Z,1018.13
2019-06-26T05:52:27.586Z,1018.13
2019-06-26T05:53:27.569Z,1018.13
2019-06-26T05:54:27.589Z,1018.12
2019-06-26T05:55:27.807Z,1018.15
2019-06-26T05:56:27.598Z,1018.18
2019-06-26T05:57:27.612Z,1018.18
2019-06-26T05:58:27.595Z,1018.19
2019-06-26T05:59:27.690Z,1018.18
2019-06-26T06:00:27.619Z,1018.15
2019-06-26T06:01:27.621Z,1018.13
2019-06-26T06:02:27.625Z,1018.14
2019-06-26T06:03:27.631Z,1018.16
2019-06-26T06:04:27.642Z,1018.17
2019-06-26T06:05:27.661Z,1018.16
2019-06-26T06:06:40.649Z,1018.16
2019-06-26T06:07:27.667Z,1018.19
2019-06-26T06:08:27.872Z,1018.19
2019-06-26T06:09:27.698Z,1018.19
2019-06-26T06:10:27.688Z,1018.24
2019-06-26T06:11:27.686Z,1018.21
2019-06-26T06:12:27.685Z,1018.25
2019-06-26T06:13:27.724Z,1018.25
2019-06-26T06:14:27.685Z,1018.27
2019-06-26T06:15:27.705Z,1018.29
2019-06-26T06:16:27.714Z,1018.30
2019-06-26T06:17:27.904Z,1018.32
2019-06-26T06:18:27.911Z,1018.29
2019-06-26T06:19:27.723Z,1018.32
2019-06-26T06:20:27.715Z,1018.33
2019-06-26T06:21:27.726Z,1018.33
2019-06-26T06:22:27.745Z,1018.33
2019-06-26T06:23:27.746Z,1018.37
2019-06-26T06:24:27.761Z,1018.37
2019-06-26T06:25:27.755Z,1018.36
2019-06-26T06:26:27.751Z,1018.33
2019-06-26T06:27:27.751Z,1018.36
2019-06-26T06:28:27.773Z,1018.36
2019-06-26T06:29:30.711Z,1018.37
2019-06-26T06:30:27.786Z,1018.38
2019-06-26T06:31:27.780Z,1018.40
2019-06-26T06:32:27.778Z,1018.36
2019-06-26T06:33:27.788Z,1018.41
2019-06-26T06:34:27.801Z,1018.39
2019-06-26T06:35:27.797Z,1018.37
2019-06-26T06:36:27.807Z,1018.38
2019-06-26T06:37:27.813Z,1018.41
2019-06-26T06:38:27.824Z,1018.41
2019-06-26T06:39:28.036Z,1018.43
2019-06-26T06:40:28.055Z,1018.49
2019-06-26T06:41:27.839Z,1018.51
2019-06-26T06:42:27.864Z,1018.50
2019-06-26T06:43:27.850Z,1018.50
2019-06-26T06:44:27.847Z,1018.50
2019-06-26T06:45:27.873Z,1018.48
2019-06-26T06:46:27.859Z,1018.49
2019-06-26T06:47:27.879Z,1018.46
2019-06-26T06:48:28.076Z,1018.49
2019-06-26T06:49:27.903Z,1018.48
2019-06-26T06:50:27.897Z,1018.50
2019-06-26T06:51:27.895Z,1018.48
2019-06-26T06:52:27.890Z,1018.50
2019-06-26T06:53:27.917Z,1018.55
2019-06-26T06:54:27.903Z,1018.55
2019-06-26T06:55:28.110Z,1018.59
2019-06-26T06:56:27.918Z,1018.60
2019-06-26T06:57:27.915Z,1018.58
2019-06-26T06:58:30.169Z,1018.60
2019-06-26T06:59:27.942Z,1018.57
2019-06-26T07:00:27.951Z,1018.53
2019-06-26T07:01:27.962Z,1018.58
2019-06-26T07:02:27.971Z,1018.58
2019-06-26T07:03:28.167Z,1018.56
2019-06-26T07:04:27.982Z,1018.55
2019-06-26T07:05:27.981Z,1018.61
2019-06-26T07:06:27.975Z,1018.62
2019-06-26T07:07:27.991Z,1018.63
2019-06-26T07:08:28.027Z,1018.65
2019-06-26T07:09:28.004Z,1018.62
2019-06-26T07:10:28.001Z,1018.69
2019-06-26T07:11:28.205Z,1018.66
2019-06-26T07:12:28.015Z,1018.66
2019-06-26T07:13:28.010Z,1018.72
2019-06-26T07:14:28.022Z,1018.72
2019-06-26T07:15:28.037Z,1018.73
2019-06-26T07:16:28.058Z,1018.71
2019-06-26T07:17:28.036Z,1018.71
2019-06-26T07:18:28.057Z,1018.77
2019-06-26T07:19:28.117Z,1018.76
2019-06-26T07:20:28.057Z,1018.73
2019-06-26T07:21:28.071Z,1018.76
2019-06-26T07:22:28.079Z,1018.77
2019-06-26T07:23:28.094Z,1018.70
2019-06-26T07:24:28.119Z,1018.77
2019-06-26T07:25:28.096Z,1018.74
2019-06-26T07:26:28.104Z,1018.74
2019-06-26T07:27:28.109Z,1018.73
2019-06-26T07:28:28.113Z,1018.80
2019-06-26T07:29:28.107Z,1018.82
2019-06-26T07:30:28.117Z,1018.87
2019-06-26T07:31:28.132Z,1018.87
2019-06-26T07:32:28.140Z,1018.89
2019-06-26T07:33:28.144Z,1018.89
2019-06-26T07:34:28.137Z,1018.90
2019-06-26T07:35:28.144Z,1018.91
2019-06-26T07:36:28.150Z,1018.97
2019-06-26T07:37:28.171Z,1018.90
2019-06-26T07:38:28.170Z,1018.94
2019-06-26T07:39:28.190Z,1018.94
2019-06-26T07:40:28.170Z,1018.94
2019-06-26T07:41:28.402Z,1018.97
2019-06-26T07:42:28.193Z,1018.98
2019-06-26T07:43:28.214Z,1019.00
2019-06-26T07:44:28.359Z,1019.05
2019-06-26T07:45:28.216Z,1019.05
2019-06-26T07:46:28.212Z,1019.06
2019-06-26T07:47:41.835Z,1019.08
2019-06-26T07:48:28.219Z,1019.10
2019-06-26T07:49:28.500Z,1019.07
2019-06-26T07:50:32.053Z,1019.10
2019-06-26T07:51:28.258Z,1019.11
2019-06-26T07:52:28.255Z,1019.11
2019-06-26T07:53:28.450Z,1019.13
2019-06-26T07:54:28.269Z,1019.06
2019-06-26T07:55:28.281Z,1019.08
2019-06-26T07:56:28.278Z,1019.11
2019-06-26T07:57:28.495Z,1019.12
2019-06-26T07:58:28.282Z,1019.10
2019-06-26T07:59:28.292Z,1019.10
2019-06-26T08:00:31.505Z,1019.13
2019-06-26T08:01:28.313Z,1019.17
2019-06-26T08:02:28.552Z,1019.15
2019-06-26T08:03:28.319Z,1019.13
2019-06-26T08:04:28.314Z,1019.18
2019-06-26T08:05:28.339Z,1019.22
2019-06-26T08:06:28.360Z,1019.23
2019-06-26T08:07:28.350Z,1019.21
2019-06-26T08:08:28.361Z,1019.18
2019-06-26T08:09:28.359Z,1019.16
2019-06-26T08:10:28.362Z,1019.16
2019-06-26T08:11:28.366Z,1019.14
2019-06-26T08:12:28.373Z,1019.14
2019-06-26T08:13:28.376Z,1019.15
2019-06-26T08:14:28.401Z,1019.07
2019-06-26T08:15:28.402Z,1019.12
2019-06-26T08:16:28.398Z,1019.06
2019-06-26T08:17:28.397Z,1019.18
2019-06-26T08:18:28.420Z,1019.20
2019-06-26T08:19:28.417Z,1019.22
2019-06-26T08:20:28.425Z,1019.26
2019-06-26T08:21:28.433Z,1019.31
2019-06-26T08:22:28.454Z,1019.33
2019-06-26T08:23:28.646Z,1019.24
2019-06-26T08:24:28.440Z,1019.22
2019-06-26T08:25:28.451Z,1019.14
2019-06-26T08:26:28.460Z,1019.18
2019-06-26T08:27:28.482Z,1019.18
2019-06-26T08:28:28.484Z,1019.20
2019-06-26T08:29:28.481Z,1019.18
2019-06-26T08:30:28.486Z,1019.15
2019-06-26T08:31:28.495Z,1019.14
2019-06-26T08:32:28.496Z,1019.15
2019-06-26T08:33:28.560Z,1019.16
2019-06-26T08:34:28.721Z,1019.16
2019-06-26T08:35:28.531Z,1019.17
2019-06-26T08:36:28.545Z,1019.17
2019-06-26T08:37:28.545Z,1019.22
2019-06-26T08:38:28.538Z,1019.23
2019-06-26T08:39:28.561Z,1019.25
2019-06-26T08:40:28.569Z,1019.25
2019-06-26T08:41:28.559Z,1019.24
2019-06-26T08:42:28.594Z,1019.24
2019-06-26T08:43:31.237Z,1019.20
2019-06-26T08:44:28.592Z,1019.23
2019-06-26T08:45:28.604Z,1019.24
2019-06-26T08:46:28.591Z,1019.25
2019-06-26T08:47:28.681Z,1019.25
2019-06-26T08:48:39.458Z,1019.30
2019-06-26T08:49:28.617Z,1019.30
2019-06-26T08:50:28.638Z,1019.28
2019-06-26T08:51:28.643Z,1019.28
2019-06-26T08:52:28.644Z,1019.29
2019-06-26T08:53:28.651Z,1019.30
2019-06-26T08:54:28.658Z,1019.28
2019-06-26T08:55:28.652Z,1019.26
2019-06-26T08:56:28.662Z,1019.29
2019-06-26T08:57:28.667Z,1019.29
2019-06-26T08:58:28.679Z,1019.30
2019-06-26T08:59:28.694Z,1019.31
2019-06-26T09:00:28.912Z,1019.33
2019-06-26T09:01:28.707Z,1019.34
2019-06-26T09:02:28.722Z,1019.32
2019-06-26T09:03:28.717Z,1019.31
2019-06-26T09:04:28.726Z,1019.33
2019-06-26T09:05:28.733Z,1019.31
2019-06-26T09:06:28.747Z,1019.28
2019-06-26T09:07:28.753Z,1019.29
2019-06-26T09:08:28.914Z,1019.30
2019-06-26T09:09:28.758Z,1019.31
2019-06-26T09:10:28.761Z,1019.29
2019-06-26T09:11:28.784Z,1019.28
2019-06-26T09:12:28.971Z,1019.31
2019-06-26T09:13:28.784Z,1019.25
2019-06-26T09:14:28.816Z,1019.23
2019-06-26T09:15:29.011Z,1019.24
2019-06-26T09:16:28.855Z,1019.24
2019-06-26T09:17:28.795Z,1019.23
2019-06-26T09:18:35.514Z,1019.20
2019-06-26T09:19:28.812Z,1019.21
2019-06-26T09:20:28.830Z,1019.21
2019-06-26T09:21:31.156Z,1019.16
2019-06-26T09:22:28.847Z,1019.22
2019-06-26T09:23:31.201Z,1019.26
2019-06-26T09:24:28.850Z,1019.22
2019-06-26T09:25:29.073Z,1019.22
2019-06-26T09:26:29.077Z,1019.25
2019-06-26T09:27:28.865Z,1019.22
2019-06-26T09:28:28.886Z,1019.22
2019-06-26T09:29:28.885Z,1019.25
2019-06-26T09:30:29.095Z,1019.28
2019-06-26T09:31:28.895Z,1019.24
2019-06-26T09:32:28.920Z,1019.23
2019-06-26T09:33:32.265Z,1019.24
2019-06-26T09:34:28.911Z,1019.24
2019-06-26T09:35:28.930Z,1019.24
2019-06-26T09:36:28.943Z,1019.23
2019-06-26T09:37:28.956Z,1019.24
2019-06-26T09:38:28.963Z,1019.20
2019-06-26T09:39:28.969Z,1019.17
2019-06-26T09:40:31.816Z,1019.17
2019-06-26T09:41:29.041Z,1019.22
2019-06-26T09:42:28.971Z,1019.23
2019-06-26T09:43:28.985Z,1019.23
2019-06-26T09:44:28.989Z,1019.22
2019-06-26T09:45:28.987Z,1019.26
2019-06-26T09:46:28.995Z,1019.20
2019-06-26T09:47:31.065Z,1019.24
2019-06-26T09:48:29.006Z,1019.21
2019-06-26T09:49:29.019Z,1019.22
2019-06-26T09:50:29.249Z,1019.21
2019-06-26T09:51:29.025Z,1019.20
2019-06-26T09:52:29.050Z,1019.18
2019-06-26T09:53:42.625Z,1019.19
2019-06-26T09:54:29.050Z,1019.18
2019-06-26T09:55:29.073Z,1019.19
2019-06-26T09:56:29.091Z,1019.16
2019-06-26T09:57:29.071Z,1019.18
2019-06-26T09:58:29.075Z,1019.15
2019-06-26T09:59:29.094Z,1019.20
2019-06-26T10:00:29.100Z,1019.18
2019-06-26T10:01:29.113Z,1019.22
2019-06-26T10:02:29.112Z,1019.22
2019-06-26T10:03:29.127Z,1019.23
2019-06-26T10:04:29.132Z,1019.20
2019-06-26T10:05:29.118Z,1019.19
2019-06-26T10:06:29.124Z,1019.20
2019-06-26T10:07:29.137Z,1019.16
2019-06-26T10:08:29.154Z,1019.15
2019-06-26T10:09:29.153Z,1019.17
2019-06-26T10:10:29.171Z,1019.11
2019-06-26T10:11:29.181Z,1019.12
2019-06-26T10:12:29.182Z,1019.11
2019-06-26T10:13:29.178Z,1019.12
2019-06-26T10:14:46.250Z,1019.15
2019-06-26T10:15:29.190Z,1019.20
2019-06-26T10:16:29.205Z,1019.19
2019-06-26T10:17:29.223Z,1019.25
2019-06-26T10:18:29.222Z,1019.28
2019-06-26T10:19:29.224Z,1019.29
2019-06-26T10:20:29.326Z,1019.29
2019-06-26T10:21:29.237Z,1019.35
2019-06-26T10:22:29.245Z,1019.28
2019-06-26T10:23:29.250Z,1019.27
2019-06-26T10:24:29.262Z,1019.33
2019-06-26T10:25:29.267Z,1019.28
2019-06-26T10:26:32.376Z,1019.30
2019-06-26T10:27:29.270Z,1019.29
2019-06-26T10:28:29.270Z,1019.30
2019-06-26T10:29:29.286Z,1019.31
2019-06-26T10:30:29.301Z,1019.39
2019-06-26T10:31:29.323Z,1019.38
2019-06-26T10:32:29.317Z,1019.40
2019-06-26T10:33:29.323Z,1019.41
2019-06-26T10:34:29.318Z,1019.40
2019-06-26T10:35:29.340Z,1019.41
2019-06-26T10:36:29.332Z,1019.41
2019-06-26T10:37:29.369Z,1019.40
2019-06-26T10:38:29.354Z,1019.41
2019-06-26T10:39:29.368Z,1019.38
2019-06-26T10:40:29.375Z,1019.41
2019-06-26T10:41:29.380Z,1019.40
2019-06-26T10:42:29.368Z,1019.32
2019-06-26T10:43:29.386Z,1019.36
2019-06-26T10:44:29.403Z,1019.36
2019-06-26T10:45:29.431Z,1019.36
2019-06-26T10:46:29.398Z,1019.37
2019-06-26T10:47:29.527Z,1019.33
2019-06-26T10:48:29.414Z,1019.29
2019-06-26T10:49:29.417Z,1019.30
2019-06-26T10:50:29.426Z,1019.34
2019-06-26T10:51:29.431Z,1019.38
2019-06-26T10:52:29.438Z,1019.41
2019-06-26T10:53:29.456Z,1019.39
2019-06-26T10:54:29.461Z,1019.39
2019-06-26T10:55:29.491Z,1019.39
2019-06-26T10:56:29.542Z,1019.38
2019-06-26T10:57:29.477Z,1019.38
2019-06-26T10:58:29.489Z,1019.39
2019-06-26T10:59:29.510Z,1019.41
2019-06-26T11:00:29.493Z,1019.41
2019-06-26T11:01:29.717Z,1019.38
2019-06-26T11:02:29.501Z,1019.40
2019-06-26T11:03:29.530Z,1019.39
2019-06-26T11:04:29.747Z,1019.39
2019-06-26T11:05:29.537Z,1019.43
2019-06-26T11:06:29.534Z,1019.41
2019-06-26T11:07:29.550Z,1019.42
2019-06-26T11:08:29.554Z,1019.44
2019-06-26T11:09:29.567Z,1019.45
2019-06-26T11:10:29.621Z,1019.39
2019-06-26T11:11:29.580Z,1019.42
2019-06-26T11:12:29.616Z,1019.46
2019-06-26T11:13:29.581Z,1019.46
2019-06-26T11:14:29.604Z,1019.49
2019-06-26T11:15:29.619Z,1019.47
2019-06-26T11:16:29.623Z,1019.43
2019-06-26T11:17:29.631Z,1019.44
2019-06-26T11:18:29.619Z,1019.47
2019-06-26T11:19:43.191Z,1019.46
2019-06-26T11:20:29.627Z,1019.47
2019-06-26T11:21:29.637Z,1019.45
2019-06-26T11:22:29.680Z,1019.44
2019-06-26T11:23:29.705Z,1019.41
2019-06-26T11:24:29.663Z,1019.41
2019-06-26T11:25:29.869Z,1019.37
2019-06-26T11:26:29.669Z,1019.37
2019-06-26T11:27:29.695Z,1019.37
2019-06-26T11:28:29.681Z,1019.35
2019-06-26T11:29:29.702Z,1019.36
2019-06-26T11:30:29.899Z,1019.42
2019-06-26T11:31:29.705Z,1019.34
2019-06-26T11:32:29.733Z,1019.35
2019-06-26T11:33:29.742Z,1019.33
2019-06-26T11:34:29.725Z,1019.39
2019-06-26T11:35:29.733Z,1019.40
2019-06-26T11:36:29.840Z,1019.36
2019-06-26T11:37:29.751Z,1019.33
2019-06-26T11:38:29.761Z,1019.40
2019-06-26T11:39:29.975Z,1019.40
2019-06-26T11:40:29.771Z,1019.36
2019-06-26T11:41:29.786Z,1019.38
2019-06-26T11:42:32.720Z,1019.40
2019-06-26T11:43:29.784Z,1019.40
2019-06-26T11:44:29.797Z,1019.41
2019-06-26T11:45:29.805Z,1019.40
2019-06-26T11:46:30.015Z,1019.41
2019-06-26T11:47:29.839Z,1019.41
2019-06-26T11:48:29.823Z,1019.39
2019-06-26T11:49:29.828Z,1019.38
2019-06-26T11:50:29.841Z,1019.39
2019-06-26T11:51:29.836Z,1019.39
2019-06-26T11:52:29.851Z,1019.42
2019-06-26T11:53:29.892Z,1019.41
2019-06-26T11:54:30.067Z,1019.41
2019-06-26T11:55:29.875Z,1019.42
2019-06-26T11:56:29.897Z,1019.36
2019-06-26T11:57:29.900Z,1019.36
2019-06-26T11:58:29.889Z,1019.33
2019-06-26T11:59:29.946Z,1019.35
2019-06-26T12:00:30.855Z,1019.38
2019-06-26T12:01:29.911Z,1019.38
2019-06-26T12:02:29.917Z,1019.38
2019-06-26T12:03:29.979Z,1019.35
2019-06-26T12:04:30.143Z,1019.36
2019-06-26T12:05:29.944Z,1019.34
2019-06-26T12:06:29.942Z,1019.36